Abbott, New Mexico
Current Conditions -  °F | °C
As of 10:53 AM on Saturday 20 Dec 2014 (Local Time) from KRTN Reporting Station
Clear Clear  
Wind Chill: 39°   Ceiling: Unl
Heat Index: 43°   Visibility: 10mi
Dew Point: 15°   Wind: 7mph
Humidity: 32%   Direction: 80°E
Pressure: 30.04"   Gusts: NA
Location:  36.3883°N, 104.381°W
Report Text: KRTN 201753Z AUTO 08006KT 10SM CLR 06/M09 A3004 RMK AO2 SLP173 T00611094 10067 21100 58002
Loading
Personal Weather Stations






























Interactive Weather Map New forecast layout! Learn more

10-Day Weather Forecast

Advertisements
Track Severe Weather on mobile